Time;durP1;ratioP1;P1;durP2;ratioP2;P2;SDS_P1;SDS_P2;PMS_P1;PMS_P2;Temp;Humidity;BMP_temperature;BMP_pressure;BME280_temperature;BME280_humidity;BME280_pressure;Samples;Min_cycle;Max_cycle;Signal;HPM_P1;HPM_P2
2023/09/14 00:00:47;;;;;;;9.35;6.53;;;18.10;99.90;;;;;;5045606;28;20379;-40
2023/09/14 00:03:12;;;;;;;10.70;7.22;;;18.10;99.90;;;;;;5044663;28;20041;-37
2023/09/14 00:05:42;;;;;;;8.60;6.38;;;18.10;99.90;;;;;;5048500;28;20056;-39
2023/09/14 00:08:08;;;;;;;9.45;6.32;;;18.10;99.90;;;;;;5042853;28;20509;-39
2023/09/14 00:10:34;;;;;;;10.18;6.68;;;18.10;99.90;;;;;;5046286;28;20661;-37
2023/09/14 00:13:00;;;;;;;8.57;6.85;;;18.00;99.90;;;;;;5047261;28;20021;-35
2023/09/14 00:15:26;;;;;;;7.93;6.45;;;18.00;99.90;;;;;;5046803;28;20316;-36
2023/09/14 00:17:52;;;;;;;7.97;6.38;;;18.00;99.90;;;;;;5046850;28;20017;-38
2023/09/14 00:20:24;;;;;;;9.02;7.00;;;18.00;99.90;;;;;;5050356;28;20826;-36
2023/09/14 00:22:50;;;;;;;10.65;7.18;;;17.90;99.90;;;;;;5042056;28;20033;-40
2023/09/14 00:25:20;;;;;;;9.57;7.13;;;17.90;99.90;;;;;;5041864;28;20040;-39
2023/09/14 00:27:47;;;;;;;9.32;6.45;;;17.80;99.90;;;;;;5043571;28;20043;-38
2023/09/14 00:30:13;;;;;;;11.57;6.38;;;17.80;99.90;;;;;;5044383;28;20520;-37
2023/09/14 00:32:39;;;;;;;10.15;6.80;;;17.90;99.90;;;;;;5041576;28;20028;-41
2023/09/14 00:35:06;;;;;;;10.25;6.85;;;17.90;99.90;;;;;;5046548;28;20021;-38
2023/09/14 00:37:32;;;;;;;9.65;7.18;;;18.00;99.90;;;;;;5042442;28;20419;-40
2023/09/14 00:39:58;;;;;;;9.40;6.72;;;18.00;99.90;;;;;;5043671;28;20102;-35
2023/09/14 00:42:23;;;;;;;9.60;6.75;;;18.00;99.90;;;;;;5045088;28;20484;-36
2023/09/14 00:44:49;;;;;;;8.55;6.80;;;17.90;99.90;;;;;;5039081;28;20048;-38
2023/09/14 00:47:15;;;;;;;10.98;6.55;;;17.90;99.90;;;;;;5047225;28;20025;-41
2023/09/14 00:49:41;;;;;;;9.77;6.80;;;17.90;99.90;;;;;;5042034;28;20025;-41
2023/09/14 00:52:07;;;;;;;10.35;7.15;;;17.80;99.90;;;;;;5045412;28;20032;-41
2023/09/14 00:54:33;;;;;;;9.70;6.70;;;17.80;99.90;;;;;;5043699;28;20587;-40
2023/09/14 00:56:59;;;;;;;10.60;6.40;;;17.80;99.90;;;;;;5038913;28;20068;-38
2023/09/14 00:59:26;;;;;;;12.13;7.32;;;17.80;99.90;;;;;;5047326;28;20083;-41
2023/09/14 01:01:51;;;;;;;9.15;6.82;;;17.80;99.90;;;;;;5043253;28;20033;-41
2023/09/14 01:04:17;;;;;;;9.13;6.55;;;17.80;99.90;;;;;;5040390;28;20033;-41
2023/09/14 01:06:43;;;;;;;7.82;6.47;;;17.80;99.90;;;;;;5045100;28;20035;-37
2023/09/14 01:09:09;;;;;;;8.50;6.22;;;17.80;99.90;;;;;;5043421;28;20116;-38
2023/09/14 01:11:35;;;;;;;8.38;6.40;;;17.70;99.90;;;;;;5042517;28;20111;-41
2023/09/14 01:14:00;;;;;;;7.05;5.80;;;17.60;99.90;;;;;;5046106;28;20532;-41
2023/09/14 01:16:38;;;;;;;10.25;6.05;;;17.50;99.90;;;;;;5043920;28;20021;-37
2023/09/14 01:19:19;;;;;;;9.25;6.45;;;17.60;99.90;;;;;;5043463;28;20364;-38
2023/09/14 01:22:04;;;;;;;8.00;5.80;;;17.60;99.90;;;;;;5049067;28;20052;-41
2023/09/14 01:25:15;;;;;;;8.02;6.55;;;17.50;99.90;;;;;;5047036;28;20029;-34
2023/09/14 01:27:41;;;;;;;7.38;5.80;;;17.60;99.90;;;;;;5045576;28;20033;-39
2023/09/14 01:30:07;;;;;;;8.57;6.85;;;17.50;99.90;;;;;;5070792;28;20086;-38
2023/09/14 01:32:33;;;;;;;9.40;6.82;;;17.50;99.90;;;;;;5045076;28;20033;-37
2023/09/14 01:34:58;;;;;;;9.15;7.05;;;17.40;99.90;;;;;;5044349;28;20027;-33
2023/09/14 01:37:25;;;;;;;9.60;7.10;;;17.40;99.90;;;;;;5045190;28;20067;-31
2023/09/14 01:39:53;;;;;;;13.70;7.57;;;17.40;99.90;;;;;;5041172;28;20040;-34
2023/09/14 01:42:20;;;;;;;12.20;7.32;;;17.40;99.90;;;;;;5046683;28;20078;-31
2023/09/14 01:44:46;;;;;;;12.73;7.95;;;17.30;99.90;;;;;;5041355;28;20510;-32
2023/09/14 01:47:12;;;;;;;9.73;7.35;;;17.30;99.90;;;;;;5047260;28;20048;-33
2023/09/14 01:49:38;;;;;;;8.73;6.88;;;17.20;99.90;;;;;;5047181;28;20369;-31
2023/09/14 01:52:03;;;;;;;8.63;6.53;;;17.20;99.90;;;;;;5047073;28;20025;-35
2023/09/14 01:54:29;;;;;;;8.48;6.75;;;17.20;99.90;;;;;;5048678;28;20596;-33
2023/09/14 01:56:55;;;;;;;10.88;7.45;;;17.30;99.90;;;;;;5043729;28;20033;-33
2023/09/14 01:59:20;;;;;;;8.82;7.00;;;17.30;99.90;;;;;;5036658;28;20029;-34
2023/09/14 02:01:46;;;;;;;13.63;7.10;;;17.30;99.90;;;;;;5047800;28;20060;-31
2023/09/14 02:04:12;;;;;;;10.15;6.80;;;17.40;99.90;;;;;;5043170;28;20032;-30
2023/09/14 02:06:37;;;;;;;9.95;6.82;;;17.30;99.90;;;;;;5044789;28;20033;-31
2023/09/14 02:09:03;;;;;;;10.73;7.75;;;17.20;99.90;;;;;;5044512;28;20095;-36
2023/09/14 02:11:29;;;;;;;11.82;6.63;;;17.20;99.90;;;;;;5031896;28;20033;-30
2023/09/14 02:13:54;;;;;;;9.15;6.65;;;17.20;99.90;;;;;;5040522;28;20797;-40
2023/09/14 02:16:20;;;;;;;8.32;6.05;;;17.30;99.90;;;;;;5044267;28;20040;-40
2023/09/14 02:18:45;;;;;;;10.90;5.75;;;17.30;99.90;;;;;;5044417;28;20043;-37
2023/09/14 02:21:11;;;;;;;9.48;6.53;;;17.30;99.90;;;;;;5045079;28;20083;-39
2023/09/14 02:23:37;;;;;;;9.60;5.30;;;17.30;99.90;;;;;;5047952;28;20029;-39
2023/09/14 02:26:02;;;;;;;9.70;5.93;;;17.20;99.90;;;;;;5030202;28;20479;-33
2023/09/14 02:28:28;;;;;;;7.25;5.57;;;17.20;99.90;;;;;;5035040;28;20385;-35
2023/09/14 02:30:53;;;;;;;7.35;5.32;;;17.20;99.90;;;;;;5068374;28;20083;-41
2023/09/14 02:33:19;;;;;;;7.53;5.65;;;17.20;99.90;;;;;;5044053;28;20027;-41
2023/09/14 02:35:50;;;;;;;9.43;6.47;;;17.20;99.90;;;;;;5042403;28;20082;-41
2023/09/14 02:38:16;;;;;;;7.90;5.85;;;17.20;99.90;;;;;;5040143;28;20033;-38
2023/09/14 02:40:42;;;;;;;9.25;5.95;;;17.10;99.90;;;;;;5041214;28;20041;-40
2023/09/14 02:43:08;;;;;;;9.48;6.57;;;17.10;99.90;;;;;;5039821;28;20048;-40
2023/09/14 02:45:33;;;;;;;9.35;6.38;;;17.20;99.90;;;;;;5044344;28;20044;-39
2023/09/14 02:47:59;;;;;;;9.27;6.70;;;17.10;99.90;;;;;;5041117;28;20037;-39
2023/09/14 02:50:24;;;;;;;8.02;6.50;;;17.10;99.90;;;;;;5043969;28;20032;-39
2023/09/14 02:52:50;;;;;;;11.43;6.72;;;17.10;99.90;;;;;;5049257;28;20033;-39
2023/09/14 02:55:16;;;;;;;10.75;6.70;;;17.20;99.90;;;;;;5042346;28;20033;-36
2023/09/14 02:57:41;;;;;;;9.60;6.30;;;17.20;99.90;;;;;;5043380;28;20032;-39
2023/09/14 03:00:10;;;;;;;10.68;6.90;;;17.20;99.90;;;;;;5042564;28;20557;-40
2023/09/14 03:02:35;;;;;;;9.70;6.43;;;17.20;99.90;;;;;;5040000;28;20159;-34
2023/09/14 03:05:01;;;;;;;9.60;6.18;;;17.00;99.90;;;;;;5045108;28;20477;-39
2023/09/14 03:07:26;;;;;;;9.52;7.18;;;17.10;99.90;;;;;;5047004;28;20080;-39
2023/09/14 03:09:52;;;;;;;9.98;6.55;;;17.00;99.90;;;;;;5043044;28;20021;-38
2023/09/14 03:12:18;;;;;;;7.15;5.53;;;16.90;99.90;;;;;;5044899;28;20637;-38
2023/09/14 03:14:43;;;;;;;9.35;5.70;;;17.00;99.90;;;;;;5050398;28;20368;-37
2023/09/14 03:17:09;;;;;;;9.90;6.15;;;17.00;99.90;;;;;;5049325;28;20984;-39
2023/09/14 03:19:34;;;;;;;8.73;5.88;;;17.00;99.90;;;;;;5048806;28;20033;-38
2023/09/14 03:22:00;;;;;;;6.07;5.45;;;17.00;99.90;;;;;;5050765;28;20078;-38
2023/09/14 03:24:25;;;;;;;6.97;5.45;;;17.00;99.90;;;;;;5047179;28;20043;-35
2023/09/14 03:26:51;;;;;;;7.60;5.22;;;17.10;99.90;;;;;;5045727;28;20039;-32
2023/09/14 03:29:16;;;;;;;10.23;5.72;;;17.10;99.90;;;;;;5046231;28;20031;-32
2023/09/14 03:31:42;;;;;;;7.55;5.78;;;17.10;99.90;;;;;;5047173;28;20064;-32
2023/09/14 03:34:08;;;;;;;9.18;6.10;;;17.00;99.90;;;;;;5045374;28;20474;-36
2023/09/14 03:36:33;;;;;;;9.40;6.22;;;17.00;99.90;;;;;;5049304;28;20036;-33
2023/09/14 03:38:59;;;;;;;6.32;5.68;;;16.90;99.90;;;;;;5046406;28;20044;-36
2023/09/14 03:41:24;;;;;;;7.07;5.70;;;16.70;99.90;;;;;;5048364;28;20387;-33
2023/09/14 03:43:50;;;;;;;8.18;5.30;;;16.60;99.90;;;;;;5046535;28;20102;-32
2023/09/14 03:46:16;;;;;;;8.52;6.35;;;16.60;99.90;;;;;;5046920;28;20044;-34
2023/09/14 03:48:41;;;;;;;8.32;5.97;;;16.70;99.90;;;;;;5044005;28;20032;-32
2023/09/14 03:51:07;;;;;;;11.90;6.78;;;16.70;99.90;;;;;;5047631;28;20028;-34
2023/09/14 03:53:33;;;;;;;9.68;6.38;;;16.70;99.90;;;;;;5050052;28;20021;-32
2023/09/14 03:56:03;;;;;;;10.55;7.68;;;16.70;99.90;;;;;;5047675;28;20028;-37
2023/09/14 03:58:29;;;;;;;10.55;6.65;;;16.70;99.90;;;;;;5044785;28;20085;-33
2023/09/14 04:00:55;;;;;;;10.77;6.75;;;16.80;99.90;;;;;;5046607;28;20052;-33
2023/09/14 04:03:21;;;;;;;10.57;7.60;;;16.80;99.90;;;;;;5041512;28;20025;-32
2023/09/14 04:05:46;;;;;;;12.32;7.80;;;16.80;99.90;;;;;;5048899;28;20086;-33
2023/09/14 04:08:12;;;;;;;10.23;6.80;;;16.80;99.90;;;;;;5042294;28;20025;-32
2023/09/14 04:10:39;;;;;;;11.63;7.93;;;16.80;99.90;;;;;;5046949;28;20103;-35
2023/09/14 04:13:29;;;;;;;14.05;8.43;;;16.80;99.90;;;;;;5047066;28;20032;-36
2023/09/14 04:15:56;;;;;;;11.32;7.68;;;16.70;99.90;;;;;;5047858;28;20033;-34
2023/09/14 04:18:23;;;;;;;12.70;7.75;;;16.80;99.90;;;;;;5044606;28;20040;-32
2023/09/14 04:20:49;;;;;;;11.32;7.65;;;16.70;99.90;;;;;;5045039;28;20060;-34
2023/09/14 04:23:15;;;;;;;11.27;7.75;;;16.80;99.90;;;;;;5041778;28;20024;-38
2023/09/14 04:25:44;;;;;;;12.20;8.68;;;16.70;99.90;;;;;;5044554;28;20032;-34
2023/09/14 04:28:12;;;;;;;13.57;7.93;;;16.60;99.90;;;;;;5043847;28;20067;-34
2023/09/14 04:30:48;;;;;;;12.02;7.95;;;16.50;99.90;;;;;;5038151;28;20111;-33
2023/09/14 04:33:16;;;;;;;12.02;8.23;;;16.40;99.90;;;;;;5040852;28;20461;-33
2023/09/14 04:35:42;;;;;;;11.75;8.15;;;16.40;99.90;;;;;;5058150;28;20495;-37
2023/09/14 04:38:08;;;;;;;15.75;9.13;;;16.50;99.90;;;;;;5044897;28;20451;-39
2023/09/14 04:40:38;;;;;;;11.90;8.27;;;16.60;99.90;;;;;;5041191;28;20110;-39
2023/09/14 04:43:05;;;;;;;12.90;7.95;;;16.70;99.90;;;;;;5039515;28;20134;-35
2023/09/14 04:45:31;;;;;;;12.25;7.57;;;16.70;99.90;;;;;;5040299;28;20036;-37
2023/09/14 04:47:57;;;;;;;14.45;8.50;;;16.70;99.90;;;;;;5043868;28;20041;-36
2023/09/14 04:50:23;;;;;;;14.43;8.05;;;16.70;99.90;;;;;;5044807;28;20357;-40
2023/09/14 04:52:49;;;;;;;14.32;8.98;;;16.70;99.90;;;;;;5043965;28;20025;-39
2023/09/14 04:55:14;;;;;;;16.50;9.77;;;16.60;99.90;;;;;;5043047;28;20373;-39
2023/09/14 04:57:40;;;;;;;12.50;8.68;;;16.50;99.90;;;;;;5046490;28;20103;-40
2023/09/14 05:00:09;;;;;;;15.23;9.48;;;16.30;99.90;;;;;;5039818;28;20037;-37
2023/09/14 05:02:35;;;;;;;17.92;9.15;;;16.30;99.90;;;;;;5047264;28;20037;-39
2023/09/14 05:05:01;;;;;;;18.00;10.68;;;16.20;99.90;;;;;;5043225;28;20021;-39
2023/09/14 05:07:26;;;;;;;15.20;9.50;;;16.20;99.90;;;;;;5041584;28;20071;-40
2023/09/14 05:09:52;;;;;;;14.10;9.02;;;16.20;99.90;;;;;;5041102;28;20163;-36
2023/09/14 05:12:18;;;;;;;13.68;9.23;;;16.10;99.90;;;;;;5043826;28;20060;-37
2023/09/14 05:14:43;;;;;;;16.48;9.98;;;16.10;99.90;;;;;;5042868;28;20499;-34
2023/09/14 05:17:09;;;;;;;15.30;9.57;;;16.10;99.90;;;;;;5043280;28;20033;-36
2023/09/14 05:19:34;;;;;;;13.88;8.82;;;16.10;99.90;;;;;;5042751;28;20029;-39
2023/09/14 05:22:00;;;;;;;14.65;9.70;;;16.20;99.90;;;;;;5043900;28;20592;-38
2023/09/14 05:24:25;;;;;;;14.85;9.10;;;16.30;99.90;;;;;;5042987;28;20037;-39
2023/09/14 05:26:52;;;;;;;14.98;8.73;;;16.40;99.90;;;;;;5043672;28;20025;-39
2023/09/14 05:29:18;;;;;;;15.10;8.82;;;16.50;99.90;;;;;;5043444;28;20026;-40
2023/09/14 05:31:43;;;;;;;15.77;9.25;;;16.50;99.90;;;;;;5043554;28;20036;-36
2023/09/14 05:34:09;;;;;;;13.23;8.77;;;16.60;99.90;;;;;;5045337;28;20037;-39
2023/09/14 05:36:34;;;;;;;13.98;8.68;;;16.50;99.90;;;;;;5045556;28;20029;-40
2023/09/14 05:39:00;;;;;;;16.65;10.10;;;16.40;99.90;;;;;;5046167;28;20036;-40
2023/09/14 05:41:25;;;;;;;18.65;11.32;;;16.40;99.90;;;;;;5046664;28;20162;-38
2023/09/14 05:43:51;;;;;;;18.30;10.18;;;16.40;99.90;;;;;;5061428;28;20040;-30
2023/09/14 05:46:17;;;;;;;16.55;10.98;;;16.40;99.90;;;;;;5053917;28;20170;-30
2023/09/14 05:48:43;;;;;;;17.50;11.88;;;16.30;99.90;;;;;;5044781;28;20037;-30
2023/09/14 05:51:09;;;;;;;18.58;11.55;;;16.30;99.90;;;;;;5047032;28;20041;-30
2023/09/14 05:53:38;;;;;;;20.67;11.52;;;16.30;99.90;;;;;;5049277;28;20114;-31
2023/09/14 05:56:04;;;;;;;16.73;11.10;;;16.30;99.90;;;;;;5044209;28;20521;-34
2023/09/14 05:58:29;;;;;;;19.85;11.32;;;16.30;99.90;;;;;;5045771;28;20025;-30
2023/09/14 06:00:55;;;;;;;16.38;10.20;;;16.30;99.90;;;;;;5049441;28;20041;-30
2023/09/14 06:03:20;;;;;;;18.40;11.18;;;16.40;99.90;;;;;;5045785;28;20159;-30
2023/09/14 06:05:46;;;;;;;16.75;10.95;;;16.50;99.90;;;;;;5046467;28;20033;-30
2023/09/14 06:08:12;;;;;;;19.23;11.55;;;16.50;99.90;;;;;;5059043;28;20382;-29
2023/09/14 06:10:38;;;;;;;19.58;11.73;;;16.40;99.90;;;;;;5047780;28;20051;-30
2023/09/14 06:13:04;;;;;;;19.85;11.13;;;16.40;99.90;;;;;;5045230;28;20025;-30
2023/09/14 06:15:31;;;;;;;19.90;12.10;;;16.40;99.90;;;;;;5026982;28;20561;-40
2023/09/14 06:17:56;;;;;;;20.05;11.63;;;16.40;99.90;;;;;;5042840;28;20045;-36
2023/09/14 06:20:22;;;;;;;20.27;11.68;;;16.40;99.90;;;;;;5046613;28;20037;-40
2023/09/14 06:22:48;;;;;;;20.20;13.02;;;16.50;99.90;;;;;;5043604;28;20025;-40
2023/09/14 06:25:13;;;;;;;20.25;11.95;;;16.50;99.90;;;;;;5048449;28;20036;-39
2023/09/14 06:27:39;;;;;;;20.35;11.80;;;16.50;99.90;;;;;;5041543;28;20492;-39
2023/09/14 06:30:06;;;;;;;19.30;12.48;;;16.50;99.90;;;;;;5044721;28;20024;-38
2023/09/14 06:32:31;;;;;;;16.33;10.43;;;16.40;99.90;;;;;;5059923;28;20052;-39
2023/09/14 06:34:57;;;;;;;17.83;10.88;;;16.50;99.90;;;;;;5046169;28;20029;-39
2023/09/14 06:37:23;;;;;;;18.23;11.48;;;16.50;99.90;;;;;;5038004;28;20498;-39
2023/09/14 06:39:48;;;;;;;17.25;10.68;;;16.50;99.90;;;;;;5050165;28;20021;-39
2023/09/14 06:42:14;;;;;;;18.40;11.65;;;16.60;99.90;;;;;;5041475;28;20037;-37
2023/09/14 06:44:39;;;;;;;21.35;12.40;;;16.60;99.90;;;;;;5043682;28;20112;-39
2023/09/14 06:47:05;;;;;;;20.13;12.05;;;16.60;99.90;;;;;;5044027;28;20075;-38
2023/09/14 06:49:30;;;;;;;21.73;12.32;;;16.50;99.90;;;;;;5047556;28;20021;-39
2023/09/14 06:51:56;;;;;;;18.98;11.25;;;16.50;99.90;;;;;;5051814;28;20065;-38
2023/09/14 06:54:25;;;;;;;21.10;13.05;;;16.50;99.90;;;;;;5055422;28;20322;-32
2023/09/14 06:56:53;;;;;;;21.23;12.00;;;16.60;99.90;;;;;;5050245;28;20552;-31
2023/09/14 06:59:19;;;;;;;23.10;11.98;;;16.60;99.90;;;;;;5053012;28;20796;-30
2023/09/14 07:01:44;;;;;;;19.48;11.15;;;16.50;99.90;;;;;;5050130;28;20051;-36
2023/09/14 07:04:11;;;;;;;18.77;11.95;;;16.60;99.90;;;;;;5050460;28;20502;-30
2023/09/14 07:06:36;;;;;;;19.58;12.43;;;16.70;99.90;;;;;;5047745;28;20079;-31
2023/09/14 07:09:04;;;;;;;22.35;11.68;;;16.80;99.90;;;;;;5054581;28;20569;-35
2023/09/14 07:11:29;;;;;;;18.27;11.43;;;16.80;99.90;;;;;;5042682;28;20502;-30
2023/09/14 07:13:55;;;;;;;17.25;12.30;;;16.70;99.90;;;;;;5047778;28;20029;-30
2023/09/14 07:16:22;;;;;;;21.58;13.05;;;16.70;99.90;;;;;;5048455;28;20034;-30
2023/09/14 07:18:47;;;;;;;19.60;11.57;;;16.60;99.90;;;;;;5065081;28;20025;-31
2023/09/14 07:21:13;;;;;;;23.00;12.70;;;16.60;99.90;;;;;;5051048;28;20048;-32
2023/09/14 07:23:39;;;;;;;19.95;12.45;;;16.60;99.90;;;;;;5049048;28;20036;-39
2023/09/14 07:26:07;;;;;;;19.92;11.95;;;16.70;99.90;;;;;;5047821;28;20033;-39
2023/09/14 07:28:33;;;;;;;20.33;11.85;;;16.70;99.90;;;;;;5052846;28;20037;-39
2023/09/14 07:31:03;;;;;;;17.90;11.32;;;16.80;99.90;;;;;;5048992;28;20494;-39
2023/09/14 07:33:29;;;;;;;22.35;13.30;;;16.90;99.90;;;;;;5043250;28;20029;-41
2023/09/14 07:35:55;;;;;;;18.75;11.80;;;17.00;99.90;;;;;;5048008;28;20029;-40
2023/09/14 07:38:21;;;;;;;19.35;12.00;;;17.00;99.90;;;;;;5047398;28;20024;-41
2023/09/14 07:40:48;;;;;;;19.17;12.05;;;17.10;99.90;;;;;;5049614;28;20505;-37
2023/09/14 07:43:14;;;;;;;18.17;12.15;;;17.20;99.90;;;;;;5046990;28;20115;-40
2023/09/14 07:45:40;;;;;;;19.38;11.43;;;17.40;99.90;;;;;;5045900;28;20414;-39
2023/09/14 07:48:07;;;;;;;21.63;12.60;;;17.30;99.90;;;;;;5049767;28;20033;-39
2023/09/14 07:50:40;;;;;;;17.03;11.40;;;17.30;99.90;;;;;;5038821;28;20037;-39
2023/09/14 07:53:09;;;;;;;18.52;10.95;;;17.40;99.90;;;;;;5047172;28;20040;-41
2023/09/14 07:55:36;;;;;;;18.83;11.70;;;17.50;99.90;;;;;;5044103;28;20415;-41
2023/09/14 07:58:02;;;;;;;19.73;12.30;;;17.60;99.90;;;;;;5049050;28;20200;-41
2023/09/14 08:00:28;;;;;;;19.15;11.02;;;17.70;99.90;;;;;;5049851;28;20119;-39
2023/09/14 08:02:54;;;;;;;19.05;11.05;;;17.80;99.90;;;;;;5046595;28;20534;-41
2023/09/14 08:05:19;;;;;;;16.58;10.38;;;18.00;99.90;;;;;;5047381;28;20063;-32
2023/09/14 08:07:45;;;;;;;18.95;11.55;;;18.00;99.90;;;;;;5051161;28;20461;-32
2023/09/14 08:10:11;;;;;;;17.08;11.15;;;18.00;99.90;;;;;;5046425;28;20103;-32
2023/09/14 08:12:37;;;;;;;18.40;11.82;;;18.00;99.90;;;;;;5049497;28;20501;-33
2023/09/14 08:15:04;;;;;;;19.85;12.82;;;18.00;99.90;;;;;;5050026;28;20028;-34
2023/09/14 08:17:29;;;;;;;16.15;11.13;;;17.80;99.90;;;;;;5038483;28;20041;-34
2023/09/14 08:19:55;;;;;;;16.80;10.90;;;17.80;99.90;;;;;;5049620;28;20418;-36
2023/09/14 08:22:23;;;;;;;17.55;12.10;;;17.70;99.90;;;;;;5047579;28;20042;-32
2023/09/14 08:24:51;;;;;;;18.58;10.65;;;17.90;99.90;;;;;;5050046;28;20125;-32
2023/09/14 08:27:18;;;;;;;18.38;11.60;;;18.00;99.90;;;;;;5048583;28;20049;-32
2023/09/14 08:29:45;;;;;;;17.48;11.10;;;18.10;99.90;;;;;;5049115;28;20075;-32
2023/09/14 08:32:11;;;;;;;16.70;11.23;;;18.30;99.90;;;;;;5043884;28;20029;-32
2023/09/14 08:34:37;;;;;;;16.60;10.68;;;18.50;99.90;;;;;;5047546;28;20120;-39
2023/09/14 08:37:03;;;;;;;17.33;11.20;;;18.70;99.90;;;;;;5048850;28;20111;-34
2023/09/14 08:39:29;;;;;;;15.55;10.85;;;18.60;99.90;;;;;;5041634;28;20032;-41
2023/09/14 08:41:54;;;;;;;18.38;12.38;;;18.60;99.90;;;;;;5048756;28;20043;-39
2023/09/14 08:44:22;;;;;;;18.02;12.93;;;18.70;99.90;;;;;;5044308;28;20047;-40
2023/09/14 08:46:48;;;;;;;20.90;12.05;;;18.50;99.90;;;;;;5041383;28;20043;-38
2023/09/14 08:49:18;;;;;;;17.33;11.32;;;18.40;99.90;;;;;;5052689;28;20052;-40
2023/09/14 08:51:45;;;;;;;18.63;11.77;;;18.50;99.90;;;;;;5047868;28;20024;-40
2023/09/14 08:54:12;;;;;;;18.67;11.55;;;18.40;99.90;;;;;;5053477;28;20032;-40
2023/09/14 08:56:38;;;;;;;19.48;12.77;;;18.40;99.90;;;;;;5077462;28;20417;-37
2023/09/14 08:59:06;;;;;;;19.73;13.25;;;18.40;99.90;;;;;;5046271;28;20323;-37
2023/09/14 09:01:32;;;;;;;21.77;13.63;;;18.50;99.90;;;;;;5046899;28;20036;-39
2023/09/14 09:03:57;;;;;;;22.33;13.15;;;18.50;99.90;;;;;;5047494;28;20032;-33
2023/09/14 09:06:31;;;;;;;20.23;12.70;;;18.40;99.90;;;;;;5048683;28;20124;-41
2023/09/14 09:08:59;;;;;;;22.60;13.93;;;18.30;99.90;;;;;;5057499;28;20064;-36
2023/09/14 09:11:24;;;;;;;17.58;11.63;;;18.30;99.90;;;;;;5041928;28;20036;-40
2023/09/14 09:13:50;;;;;;;16.75;12.07;;;18.30;99.90;;;;;;5047975;28;20036;-39
2023/09/14 09:16:16;;;;;;;21.27;11.40;;;18.30;99.90;;;;;;5047781;28;20250;-37
2023/09/14 09:19:05;;;;;;;17.60;11.18;;;18.40;99.90;;;;;;5048805;28;20090;-39
2023/09/14 09:21:32;;;;;;;15.50;10.57;;;18.40;99.90;;;;;;5042480;28;20025;-39
2023/09/14 09:24:01;;;;;;;22.08;12.40;;;18.40;99.90;;;;;;5042239;28;20025;-34
2023/09/14 09:26:33;;;;;;;17.30;11.45;;;18.40;99.90;;;;;;5047874;28;20051;-39
2023/09/14 09:28:59;;;;;;;15.43;10.65;;;18.40;99.90;;;;;;5044791;28;20024;-36
2023/09/14 09:31:44;;;;;;;18.83;11.80;;;18.30;99.90;;;;;;5049361;28;20039;-39
2023/09/14 09:34:11;;;;;;;16.67;11.68;;;18.30;99.90;;;;;;5039537;28;20033;-38
2023/09/14 09:36:38;;;;;;;17.73;11.27;;;18.20;99.90;;;;;;5049875;28;20025;-38
2023/09/14 09:39:07;;;;;;;19.30;12.18;;;18.20;99.90;;;;;;5048028;28;20032;-38
2023/09/14 09:41:34;;;;;;;20.27;12.73;;;18.20;99.90;;;;;;5050771;28;20045;-39
2023/09/14 09:44:05;;;;;;;19.15;13.00;;;18.10;99.90;;;;;;5046531;28;20045;-41
2023/09/14 09:46:34;;;;;;;19.88;12.52;;;18.10;99.90;;;;;;5048798;28;20120;-40
2023/09/14 09:49:00;;;;;;;20.95;13.48;;;18.10;99.90;;;;;;5047232;28;20024;-41
2023/09/14 09:51:28;;;;;;;20.80;14.20;;;18.10;99.90;;;;;;5043818;28;20527;-38
2023/09/14 09:54:05;;;;;;;26.08;15.93;;;18.00;99.90;;;;;;5047026;28;20036;-40
2023/09/14 09:56:33;;;;;;;22.98;14.20;;;18.00;99.90;;;;;;5046882;28;20032;-40
2023/09/14 09:59:02;;;;;;;22.33;13.80;;;17.90;99.90;;;;;;5044371;28;20439;-40
2023/09/14 10:01:28;;;;;;;25.67;15.07;;;18.00;99.90;;;;;;5047592;28;20804;-39
2023/09/14 10:03:56;;;;;;;24.75;15.25;;;18.10;99.90;;;;;;5044802;28;20481;-41
2023/09/14 10:06:21;;;;;;;23.37;14.27;;;18.00;99.90;;;;;;5043121;28;20099;-41
2023/09/14 10:08:57;;;;;;;27.75;17.10;;;18.00;99.90;;;;;;5051291;28;21064;-40
2023/09/14 10:11:24;;;;;;;23.50;14.55;;;17.80;99.90;;;;;;5045095;28;20035;-41
2023/09/14 10:13:51;;;;;;;23.67;14.38;;;17.60;99.90;;;;;;5049475;28;20070;-41
2023/09/14 10:16:23;;;;;;;21.58;13.60;;;17.50;99.90;;;;;;5046813;28;20302;-40
2023/09/14 10:18:54;;;;;;;23.25;14.80;;;17.50;99.90;;;;;;5046440;28;20025;-41
2023/09/14 10:21:22;;;;;;;25.10;14.50;;;17.40;99.90;;;;;;5043329;28;20036;-38
2023/09/14 10:23:51;;;;;;;28.45;16.33;;;17.40;99.90;;;;;;5045751;28;20128;-29
2023/09/14 10:26:18;;;;;;;25.10;14.93;;;17.30;99.90;;;;;;5048935;28;20497;-30
2023/09/14 10:28:44;;;;;;;23.48;14.15;;;17.30;99.90;;;;;;5048751;28;20025;-31
2023/09/14 10:31:13;;;;;;;28.17;16.35;;;17.20;99.90;;;;;;5042367;28;20570;-29
2023/09/14 10:33:48;;;;;;;25.50;15.65;;;17.10;99.90;;;;;;5046938;28;20021;-30
2023/09/14 10:36:14;;;;;;;24.50;14.88;;;17.20;99.90;;;;;;5041460;28;20029;-31
2023/09/14 10:38:43;;;;;;;24.73;14.20;;;17.30;99.90;;;;;;5046630;28;20025;-29
2023/09/14 10:41:11;;;;;;;25.25;15.43;;;17.30;99.90;;;;;;5042396;28;20041;-32
2023/09/14 10:43:38;;;;;;;29.85;15.38;;;17.40;99.90;;;;;;5042341;28;20175;-31
2023/09/14 10:46:14;;;;;;;22.17;14.32;;;17.50;99.90;;;;;;5047395;28;20029;-32
2023/09/14 10:48:55;;;;;;;26.95;16.00;;;17.60;99.90;;;;;;5043372;28;20416;-29
2023/09/14 10:51:22;;;;;;;22.60;14.13;;;17.70;99.90;;;;;;5044671;28;20029;-29
2023/09/14 10:53:49;;;;;;;26.52;14.95;;;17.80;99.90;;;;;;5044844;28;20064;-33
2023/09/14 10:56:31;;;;;;;24.88;14.30;;;17.90;99.90;;;;;;5044736;28;20091;-32
2023/09/14 10:58:58;;;;;;;21.30;14.18;;;17.90;99.90;;;;;;5062949;28;20029;-33
2023/09/14 11:01:28;;;;;;;24.83;14.25;;;18.00;99.90;;;;;;5042943;28;20608;-32
2023/09/14 11:04:06;;;;;;;20.35;12.93;;;18.10;99.90;;;;;;5049534;28;20536;-32
2023/09/14 11:06:44;;;;;;;;;;;18.20;99.90;;;;;;5046205;28;20025;-32
2023/09/14 11:09:10;;;;;;;25.02;13.90;;;18.20;99.90;;;;;;5045334;28;19916;-34
2023/09/14 11:11:42;;;;;;;22.25;13.50;;;18.10;99.90;;;;;;5047049;28;20475;-31
2023/09/14 11:14:10;;;;;;;21.65;13.65;;;18.10;99.90;;;;;;5042123;28;20044;-32
2023/09/14 11:16:47;;;;;;;18.25;11.93;;;18.10;99.90;;;;;;5046994;28;20036;-33
2023/09/14 11:19:34;;;;;;;20.40;12.63;;;18.10;99.90;;;;;;5044419;28;20060;-32
2023/09/14 11:22:16;;;;;;;18.05;12.50;;;18.30;99.90;;;;;;5043228;28;20060;-36
2023/09/14 11:24:42;;;;;;;20.27;12.57;;;18.30;99.90;;;;;;5051210;28;20106;-31
2023/09/14 11:27:18;;;;;;;22.50;14.02;;;18.30;99.90;;;;;;5042199;28;20133;-31
2023/09/14 11:29:45;;;;;;;19.60;13.20;;;18.30;99.90;;;;;;5059453;28;20020;-31
2023/09/14 11:32:12;;;;;;;21.77;13.07;;;18.30;99.90;;;;;;5039789;28;20037;-33
2023/09/14 11:34:38;;;;;;;22.80;14.27;;;18.30;99.90;;;;;;5047377;28;20405;-30
2023/09/14 11:37:05;;;;;;;20.77;12.98;;;18.30;99.90;;;;;;5049672;28;20060;-32
2023/09/14 11:39:31;;;;;;;19.73;12.48;;;18.30;99.90;;;;;;5041955;28;20346;-29
2023/09/14 11:45:21;;;;;;;17.85;11.85;;;18.30;99.90;;;;;;5050347;28;20586;-30
2023/09/14 11:47:48;;;;;;;19.52;12.52;;;18.30;99.90;;;;;;5049662;28;20033;-29
2023/09/14 11:50:14;;;;;;;17.50;10.82;;;18.30;99.90;;;;;;5065914;28;20504;-29
2023/09/14 11:52:41;;;;;;;17.35;11.45;;;18.30;99.90;;;;;;5050313;28;20375;-29
2023/09/14 11:55:07;;;;;;;16.40;10.90;;;18.40;99.90;;;;;;5049671;28;20033;-30
2023/09/14 11:57:33;;;;;;;18.15;11.52;;;18.40;99.90;;;;;;5053724;28;20035;-29
2023/09/14 11:59:59;;;;;;;17.30;11.60;;;18.50;99.90;;;;;;5051598;28;20062;-30
2023/09/14 12:02:25;;;;;;;18.02;11.05;;;18.50;99.90;;;;;;5065028;28;20425;-30
2023/09/14 12:04:52;;;;;;;16.15;11.05;;;18.50;99.90;;;;;;5048998;28;20048;-31
2023/09/14 12:07:21;;;;;;;17.53;11.10;;;18.60;99.90;;;;;;5052149;28;20069;-34
2023/09/14 12:09:47;;;;;;;16.38;10.85;;;18.60;99.90;;;;;;5045820;28;20303;-34
2023/09/14 12:12:28;;;;;;;19.95;12.73;;;18.70;99.90;;;;;;5047258;28;20060;-32
2023/09/14 12:14:53;;;;;;;17.80;11.20;;;18.80;99.90;;;;;;5052664;28;20103;-32
2023/09/14 12:17:21;;;;;;;17.90;11.65;;;18.80;99.90;;;;;;5049842;28;20119;-31
2023/09/14 12:19:59;;;;;;;18.52;10.82;;;18.90;99.90;;;;;;5048601;28;20033;-35
2023/09/14 12:22:27;;;;;;;16.05;10.73;;;19.20;99.90;;;;;;5048073;28;20626;-32
2023/09/14 12:24:53;;;;;;;16.85;10.85;;;19.10;99.90;;;;;;5050544;28;20032;-33
2023/09/14 12:27:20;;;;;;;20.23;10.77;;;19.00;99.90;;;;;;5043947;28;20063;-32
2023/09/14 12:29:47;;;;;;;16.35;10.90;;;19.10;99.90;;;;;;5043913;28;20033;-33
2023/09/14 12:32:13;;;;;;;16.23;10.40;;;19.10;99.90;;;;;;5046675;28;20655;-32
2023/09/14 12:34:39;;;;;;;15.55;10.80;;;19.10;99.90;;;;;;5066632;28;20028;-33
2023/09/14 12:37:06;;;;;;;16.17;10.45;;;19.20;99.90;;;;;;5046337;28;20390;-32